sensor_id;sensor_type;location;lat;lon;timestamp;P1;durP1;ratioP1;P2;durP2;ratioP2
4762;SDS011;2395;50.738;7.122;2022-09-21T00:00:31;7.30;;;4.77;;
4762;SDS011;2395;50.738;7.122;2022-09-21T00:02:57;7.60;;;5.13;;
4762;SDS011;2395;50.738;7.122;2022-09-21T00:05:24;7.47;;;5.13;;
4762;SDS011;2395;50.738;7.122;2022-09-21T00:07:52;10.50;;;5.30;;
4762;SDS011;2395;50.738;7.122;2022-09-21T00:10:19;10.03;;;5.37;;
4762;SDS011;2395;50.738;7.122;2022-09-21T00:12:47;7.30;;;5.10;;
4762;SDS011;2395;50.738;7.122;2022-09-21T00:15:15;7.43;;;4.73;;
4762;SDS011;2395;50.738;7.122;2022-09-21T00:17:43;8.20;;;5.50;;
4762;SDS011;2395;50.738;7.122;2022-09-21T00:20:12;8.67;;;5.63;;
4762;SDS011;2395;50.738;7.122;2022-09-21T00:22:40;9.33;;;5.67;;
4762;SDS011;2395;50.738;7.122;2022-09-21T00:25:08;9.37;;;4.43;;
4762;SDS011;2395;50.738;7.122;2022-09-21T00:27:35;10.03;;;5.90;;
4762;SDS011;2395;50.738;7.122;2022-09-21T00:30:02;11.93;;;6.10;;
4762;SDS011;2395;50.738;7.122;2022-09-21T00:32:33;11.47;;;6.17;;
4762;SDS011;2395;50.738;7.122;2022-09-21T00:35:03;9.40;;;5.50;;
4762;SDS011;2395;50.738;7.122;2022-09-21T00:37:33;12.20;;;5.47;;
4762;SDS011;2395;50.738;7.122;2022-09-21T00:40:01;7.37;;;4.77;;
4762;SDS011;2395;50.738;7.122;2022-09-21T00:42:29;11.53;;;5.37;;
4762;SDS011;2395;50.738;7.122;2022-09-21T00:44:58;10.60;;;5.53;;
4762;SDS011;2395;50.738;7.122;2022-09-21T00:47:27;8.07;;;4.90;;
4762;SDS011;2395;50.738;7.122;2022-09-21T00:50:02;9.27;;;4.80;;
4762;SDS011;2395;50.738;7.122;2022-09-21T00:52:35;12.60;;;5.43;;
4762;SDS011;2395;50.738;7.122;2022-09-21T00:55:07;9.40;;;5.00;;
4762;SDS011;2395;50.738;7.122;2022-09-21T00:57:41;10.23;;;5.03;;
4762;SDS011;2395;50.738;7.122;2022-09-21T01:00:11;10.83;;;5.43;;
4762;SDS011;2395;50.738;7.122;2022-09-21T01:02:40;7.17;;;5.10;;
4762;SDS011;2395;50.738;7.122;2022-09-21T01:05:08;10.13;;;5.33;;
4762;SDS011;2395;50.738;7.122;2022-09-21T01:07:36;7.77;;;5.00;;
4762;SDS011;2395;50.738;7.122;2022-09-21T01:10:07;8.00;;;4.60;;
4762;SDS011;2395;50.738;7.122;2022-09-21T01:12:45;9.23;;;5.00;;
4762;SDS011;2395;50.738;7.122;2022-09-21T01:15:28;11.83;;;5.40;;
4762;SDS011;2395;50.738;7.122;2022-09-21T01:18:11;9.93;;;5.80;;
4762;SDS011;2395;50.738;7.122;2022-09-21T01:23:53;8.90;;;5.90;;
4762;SDS011;2395;50.738;7.122;2022-09-21T01:27:07;8.57;;;5.40;;
4762;SDS011;2395;50.738;7.122;2022-09-21T01:30:02;7.17;;;5.10;;
4762;SDS011;2395;50.738;7.122;2022-09-21T01:32:36;6.47;;;5.33;;
4762;SDS011;2395;50.738;7.122;2022-09-21T01:35:09;9.80;;;5.90;;
4762;SDS011;2395;50.738;7.122;2022-09-21T01:37:44;9.50;;;5.50;;
4762;SDS011;2395;50.738;7.122;2022-09-21T01:40:18;9.03;;;5.87;;
4762;SDS011;2395;50.738;7.122;2022-09-21T01:42:50;12.97;;;6.07;;
4762;SDS011;2395;50.738;7.122;2022-09-21T01:45:25;13.93;;;6.17;;
4762;SDS011;2395;50.738;7.122;2022-09-21T01:47:58;12.07;;;6.23;;
4762;SDS011;2395;50.738;7.122;2022-09-21T01:50:28;12.20;;;7.07;;
4762;SDS011;2395;50.738;7.122;2022-09-21T01:53:03;9.17;;;5.63;;
4762;SDS011;2395;50.738;7.122;2022-09-21T01:55:38;17.17;;;6.70;;
4762;SDS011;2395;50.738;7.122;2022-09-21T01:58:12;12.10;;;6.27;;
4762;SDS011;2395;50.738;7.122;2022-09-21T02:00:49;16.30;;;6.50;;
4762;SDS011;2395;50.738;7.122;2022-09-21T02:03:21;14.37;;;6.80;;
4762;SDS011;2395;50.738;7.122;2022-09-21T02:05:57;11.90;;;7.10;;
4762;SDS011;2395;50.738;7.122;2022-09-21T02:08:27;13.13;;;7.07;;
4762;SDS011;2395;50.738;7.122;2022-09-21T02:10:58;13.80;;;6.60;;
4762;SDS011;2395;50.738;7.122;2022-09-21T02:13:28;10.30;;;7.10;;
4762;SDS011;2395;50.738;7.122;2022-09-21T02:16:04;12.60;;;6.97;;
4762;SDS011;2395;50.738;7.122;2022-09-21T02:18:52;13.67;;;8.63;;
4762;SDS011;2395;50.738;7.122;2022-09-21T02:21:38;12.10;;;8.90;;
4762;SDS011;2395;50.738;7.122;2022-09-21T02:24:24;14.77;;;10.00;;
4762;SDS011;2395;50.738;7.122;2022-09-21T02:27:04;28.80;;;11.60;;
4762;SDS011;2395;50.738;7.122;2022-09-21T02:29:40;20.63;;;11.10;;
4762;SDS011;2395;50.738;7.122;2022-09-21T02:32:17;17.23;;;11.40;;
4762;SDS011;2395;50.738;7.122;2022-09-21T02:34:56;18.00;;;12.20;;
4762;SDS011;2395;50.738;7.122;2022-09-21T02:37:31;16.53;;;11.40;;
4762;SDS011;2395;50.738;7.122;2022-09-21T02:40:08;29.90;;;12.67;;
4762;SDS011;2395;50.738;7.122;2022-09-21T02:42:47;46.57;;;12.10;;
4762;SDS011;2395;50.738;7.122;2022-09-21T02:45:20;18.03;;;12.03;;
4762;SDS011;2395;50.738;7.122;2022-09-21T02:47:52;16.53;;;12.00;;
4762;SDS011;2395;50.738;7.122;2022-09-21T02:50:28;17.17;;;12.87;;
4762;SDS011;2395;50.738;7.122;2022-09-21T02:53:02;19.87;;;12.53;;
4762;SDS011;2395;50.738;7.122;2022-09-21T02:55:34;20.07;;;12.90;;
4762;SDS011;2395;50.738;7.122;2022-09-21T02:58:01;16.30;;;13.17;;
4762;SDS011;2395;50.738;7.122;2022-09-21T03:00:34;17.40;;;12.73;;
4762;SDS011;2395;50.738;7.122;2022-09-21T03:03:13;18.37;;;12.23;;
4762;SDS011;2395;50.738;7.122;2022-09-21T03:05:43;17.63;;;12.33;;
4762;SDS011;2395;50.738;7.122;2022-09-21T03:08:13;20.17;;;12.67;;
4762;SDS011;2395;50.738;7.122;2022-09-21T03:10:40;20.00;;;13.00;;
4762;SDS011;2395;50.738;7.122;2022-09-21T03:13:07;41.77;;;13.17;;
4762;SDS011;2395;50.738;7.122;2022-09-21T03:15:35;21.63;;;12.40;;
4762;SDS011;2395;50.738;7.122;2022-09-21T03:18:03;16.87;;;12.80;;
4762;SDS011;2395;50.738;7.122;2022-09-21T03:20:35;18.73;;;12.80;;
4762;SDS011;2395;50.738;7.122;2022-09-21T03:23:02;16.77;;;12.47;;
4762;SDS011;2395;50.738;7.122;2022-09-21T03:25:30;19.73;;;13.57;;
4762;SDS011;2395;50.738;7.122;2022-09-21T03:27:57;19.87;;;14.20;;
4762;SDS011;2395;50.738;7.122;2022-09-21T03:30:25;22.90;;;13.47;;
4762;SDS011;2395;50.738;7.122;2022-09-21T03:32:53;19.40;;;12.53;;
4762;SDS011;2395;50.738;7.122;2022-09-21T03:35:21;16.33;;;13.60;;
4762;SDS011;2395;50.738;7.122;2022-09-21T03:37:51;18.13;;;14.47;;
4762;SDS011;2395;50.738;7.122;2022-09-21T03:40:19;16.00;;;13.47;;
4762;SDS011;2395;50.738;7.122;2022-09-21T03:42:47;18.23;;;13.50;;
4762;SDS011;2395;50.738;7.122;2022-09-21T03:45:14;18.97;;;13.90;;
4762;SDS011;2395;50.738;7.122;2022-09-21T03:47:41;18.40;;;14.83;;
4762;SDS011;2395;50.738;7.122;2022-09-21T03:50:08;18.40;;;12.50;;
4762;SDS011;2395;50.738;7.122;2022-09-21T03:52:36;21.43;;;13.50;;
4762;SDS011;2395;50.738;7.122;2022-09-21T03:55:05;16.43;;;12.37;;
4762;SDS011;2395;50.738;7.122;2022-09-21T03:57:34;17.47;;;12.23;;
4762;SDS011;2395;50.738;7.122;2022-09-21T04:00:02;13.73;;;12.17;;
4762;SDS011;2395;50.738;7.122;2022-09-21T04:02:35;19.07;;;12.77;;
4762;SDS011;2395;50.738;7.122;2022-09-21T04:05:04;43.07;;;13.70;;
4762;SDS011;2395;50.738;7.122;2022-09-21T04:07:35;15.87;;;12.73;;
4762;SDS011;2395;50.738;7.122;2022-09-21T04:10:05;18.50;;;12.63;;
4762;SDS011;2395;50.738;7.122;2022-09-21T04:12:37;18.17;;;12.97;;
4762;SDS011;2395;50.738;7.122;2022-09-21T04:15:08;17.73;;;13.93;;
4762;SDS011;2395;50.738;7.122;2022-09-21T04:17:36;19.03;;;13.30;;
4762;SDS011;2395;50.738;7.122;2022-09-21T04:20:03;20.23;;;13.47;;
4762;SDS011;2395;50.738;7.122;2022-09-21T04:22:33;16.37;;;13.53;;
4762;SDS011;2395;50.738;7.122;2022-09-21T04:25:00;13.97;;;12.57;;
4762;SDS011;2395;50.738;7.122;2022-09-21T04:27:30;23.23;;;12.80;;
4762;SDS011;2395;50.738;7.122;2022-09-21T04:29:57;19.27;;;14.57;;
4762;SDS011;2395;50.738;7.122;2022-09-21T04:32:24;19.23;;;14.30;;
4762;SDS011;2395;50.738;7.122;2022-09-21T04:34:52;17.60;;;15.13;;
4762;SDS011;2395;50.738;7.122;2022-09-21T04:37:19;21.37;;;14.10;;
4762;SDS011;2395;50.738;7.122;2022-09-21T04:39:46;18.13;;;14.57;;
4762;SDS011;2395;50.738;7.122;2022-09-21T04:42:13;20.13;;;14.47;;
4762;SDS011;2395;50.738;7.122;2022-09-21T04:44:41;19.10;;;15.30;;
4762;SDS011;2395;50.738;7.122;2022-09-21T04:47:08;18.23;;;15.33;;
4762;SDS011;2395;50.738;7.122;2022-09-21T04:49:35;25.53;;;15.80;;
4762;SDS011;2395;50.738;7.122;2022-09-21T04:52:02;21.67;;;15.87;;
4762;SDS011;2395;50.738;7.122;2022-09-21T04:54:30;25.77;;;17.60;;
4762;SDS011;2395;50.738;7.122;2022-09-21T04:56:56;19.93;;;15.00;;
4762;SDS011;2395;50.738;7.122;2022-09-21T04:59:23;20.40;;;15.23;;
4762;SDS011;2395;50.738;7.122;2022-09-21T05:01:52;20.83;;;14.27;;
4762;SDS011;2395;50.738;7.122;2022-09-21T05:04:19;20.20;;;15.63;;
4762;SDS011;2395;50.738;7.122;2022-09-21T05:06:45;18.87;;;14.73;;
4762;SDS011;2395;50.738;7.122;2022-09-21T05:09:12;18.60;;;13.70;;
4762;SDS011;2395;50.738;7.122;2022-09-21T05:11:57;17.07;;;13.70;;
4762;SDS011;2395;50.738;7.122;2022-09-21T05:14:24;16.97;;;13.73;;
4762;SDS011;2395;50.738;7.122;2022-09-21T05:16:52;15.83;;;12.73;;
4762;SDS011;2395;50.738;7.122;2022-09-21T05:19:19;41.97;;;12.83;;
4762;SDS011;2395;50.738;7.122;2022-09-21T05:21:46;18.27;;;13.87;;
4762;SDS011;2395;50.738;7.122;2022-09-21T05:24:13;28.27;;;17.27;;
4762;SDS011;2395;50.738;7.122;2022-09-21T05:26:40;45.57;;;28.70;;
4762;SDS011;2395;50.738;7.122;2022-09-21T05:29:07;38.03;;;17.87;;
4762;SDS011;2395;50.738;7.122;2022-09-21T05:31:37;50.07;;;27.80;;
4762;SDS011;2395;50.738;7.122;2022-09-21T05:34:16;30.87;;;20.53;;
4762;SDS011;2395;50.738;7.122;2022-09-21T05:37:10;28.53;;;18.00;;
4762;SDS011;2395;50.738;7.122;2022-09-21T05:39:58;25.50;;;17.97;;
4762;SDS011;2395;50.738;7.122;2022-09-21T05:42:26;50.10;;;28.47;;
4762;SDS011;2395;50.738;7.122;2022-09-21T05:44:54;63.93;;;37.87;;
4762;SDS011;2395;50.738;7.122;2022-09-21T05:47:22;32.17;;;15.63;;
4762;SDS011;2395;50.738;7.122;2022-09-21T05:50:02;56.10;;;24.73;;
4762;SDS011;2395;50.738;7.122;2022-09-21T05:52:49;46.63;;;19.20;;
4762;SDS011;2395;50.738;7.122;2022-09-21T05:55:33;21.00;;;16.50;;
4762;SDS011;2395;50.738;7.122;2022-09-21T05:58:15;20.07;;;16.00;;
4762;SDS011;2395;50.738;7.122;2022-09-21T06:01:01;18.33;;;15.60;;
4762;SDS011;2395;50.738;7.122;2022-09-21T06:03:42;21.50;;;15.87;;
4762;SDS011;2395;50.738;7.122;2022-09-21T06:06:13;21.33;;;15.00;;
4762;SDS011;2395;50.738;7.122;2022-09-21T06:08:42;16.80;;;14.37;;
4762;SDS011;2395;50.738;7.122;2022-09-21T06:11:09;19.20;;;15.47;;
4762;SDS011;2395;50.738;7.122;2022-09-21T06:13:38;18.47;;;15.57;;
4762;SDS011;2395;50.738;7.122;2022-09-21T06:16:06;21.07;;;15.47;;
4762;SDS011;2395;50.738;7.122;2022-09-21T06:18:35;25.40;;;15.80;;
4762;SDS011;2395;50.738;7.122;2022-09-21T06:21:04;19.17;;;15.10;;
4762;SDS011;2395;50.738;7.122;2022-09-21T06:23:33;18.90;;;15.00;;
4762;SDS011;2395;50.738;7.122;2022-09-21T06:26:00;19.30;;;15.20;;
4762;SDS011;2395;50.738;7.122;2022-09-21T06:28:28;17.27;;;14.93;;
4762;SDS011;2395;50.738;7.122;2022-09-21T06:30:55;19.40;;;17.17;;
4762;SDS011;2395;50.738;7.122;2022-09-21T06:33:23;19.67;;;16.20;;
4762;SDS011;2395;50.738;7.122;2022-09-21T06:35:51;24.27;;;18.03;;
4762;SDS011;2395;50.738;7.122;2022-09-21T06:38:19;22.07;;;16.80;;
4762;SDS011;2395;50.738;7.122;2022-09-21T06:40:49;20.33;;;16.97;;
4762;SDS011;2395;50.738;7.122;2022-09-21T06:43:17;23.47;;;18.40;;
4762;SDS011;2395;50.738;7.122;2022-09-21T06:45:51;24.20;;;21.03;;
4762;SDS011;2395;50.738;7.122;2022-09-21T06:48:19;22.10;;;16.93;;
4762;SDS011;2395;50.738;7.122;2022-09-21T06:50:46;23.83;;;19.83;;
4762;SDS011;2395;50.738;7.122;2022-09-21T06:53:14;22.37;;;17.53;;
4762;SDS011;2395;50.738;7.122;2022-09-21T06:55:42;26.00;;;19.63;;
4762;SDS011;2395;50.738;7.122;2022-09-21T06:58:10;23.83;;;19.27;;
4762;SDS011;2395;50.738;7.122;2022-09-21T07:00:37;24.20;;;18.83;;
4762;SDS011;2395;50.738;7.122;2022-09-21T07:03:04;23.83;;;19.77;;
4762;SDS011;2395;50.738;7.122;2022-09-21T07:05:31;23.50;;;18.10;;
4762;SDS011;2395;50.738;7.122;2022-09-21T07:07:58;24.17;;;18.00;;
4762;SDS011;2395;50.738;7.122;2022-09-21T07:10:26;27.03;;;19.53;;
4762;SDS011;2395;50.738;7.122;2022-09-21T07:12:53;24.00;;;19.17;;
4762;SDS011;2395;50.738;7.122;2022-09-21T07:15:21;28.23;;;18.73;;
4762;SDS011;2395;50.738;7.122;2022-09-21T07:17:53;33.07;;;21.60;;
4762;SDS011;2395;50.738;7.122;2022-09-21T07:20:19;25.43;;;19.00;;
4762;SDS011;2395;50.738;7.122;2022-09-21T07:22:46;26.43;;;19.93;;
4762;SDS011;2395;50.738;7.122;2022-09-21T07:25:13;29.77;;;20.50;;
4762;SDS011;2395;50.738;7.122;2022-09-21T07:27:41;23.80;;;20.20;;
4762;SDS011;2395;50.738;7.122;2022-09-21T07:30:08;25.37;;;20.93;;
4762;SDS011;2395;50.738;7.122;2022-09-21T07:32:38;23.80;;;20.80;;
4762;SDS011;2395;50.738;7.122;2022-09-21T07:35:05;26.10;;;19.20;;
4762;SDS011;2395;50.738;7.122;2022-09-21T07:37:33;29.30;;;21.50;;
4762;SDS011;2395;50.738;7.122;2022-09-21T07:40:00;23.53;;;19.17;;
4762;SDS011;2395;50.738;7.122;2022-09-21T07:42:29;23.90;;;20.37;;
4762;SDS011;2395;50.738;7.122;2022-09-21T07:44:57;27.53;;;20.80;;
4762;SDS011;2395;50.738;7.122;2022-09-21T07:47:24;26.90;;;20.50;;
4762;SDS011;2395;50.738;7.122;2022-09-21T07:49:53;26.80;;;21.00;;
4762;SDS011;2395;50.738;7.122;2022-09-21T07:52:20;26.17;;;20.80;;
4762;SDS011;2395;50.738;7.122;2022-09-21T07:54:47;23.53;;;20.40;;
4762;SDS011;2395;50.738;7.122;2022-09-21T07:57:14;25.73;;;20.30;;
4762;SDS011;2395;50.738;7.122;2022-09-21T07:59:58;22.43;;;19.20;;
4762;SDS011;2395;50.738;7.122;2022-09-21T08:02:25;23.43;;;19.50;;
4762;SDS011;2395;50.738;7.122;2022-09-21T08:04:54;21.77;;;17.97;;
4762;SDS011;2395;50.738;7.122;2022-09-21T08:07:20;25.20;;;18.90;;
4762;SDS011;2395;50.738;7.122;2022-09-21T08:09:48;20.83;;;18.27;;
4762;SDS011;2395;50.738;7.122;2022-09-21T08:12:15;21.43;;;17.97;;
4762;SDS011;2395;50.738;7.122;2022-09-21T08:14:44;19.57;;;16.57;;
4762;SDS011;2395;50.738;7.122;2022-09-21T08:17:12;19.93;;;17.10;;
4762;SDS011;2395;50.738;7.122;2022-09-21T08:19:39;22.50;;;17.50;;
4762;SDS011;2395;50.738;7.122;2022-09-21T08:22:07;17.90;;;15.80;;
4762;SDS011;2395;50.738;7.122;2022-09-21T08:24:35;21.10;;;17.30;;
4762;SDS011;2395;50.738;7.122;2022-09-21T08:27:03;22.60;;;17.50;;
4762;SDS011;2395;50.738;7.122;2022-09-21T08:29:32;17.97;;;15.23;;
4762;SDS011;2395;50.738;7.122;2022-09-21T08:32:00;17.63;;;15.77;;
4762;SDS011;2395;50.738;7.122;2022-09-21T08:34:28;21.63;;;16.10;;
4762;SDS011;2395;50.738;7.122;2022-09-21T08:36:55;19.30;;;15.73;;
4762;SDS011;2395;50.738;7.122;2022-09-21T08:39:23;21.27;;;16.63;;
4762;SDS011;2395;50.738;7.122;2022-09-21T08:41:53;28.67;;;17.93;;
4762;SDS011;2395;50.738;7.122;2022-09-21T08:44:50;22.87;;;17.60;;
4762;SDS011;2395;50.738;7.122;2022-09-21T08:47:26;24.40;;;18.40;;
4762;SDS011;2395;50.738;7.122;2022-09-21T08:50:04;21.40;;;18.20;;
4762;SDS011;2395;50.738;7.122;2022-09-21T08:52:48;27.10;;;17.70;;
4762;SDS011;2395;50.738;7.122;2022-09-21T08:55:20;23.37;;;17.20;;
4762;SDS011;2395;50.738;7.122;2022-09-21T08:57:48;24.97;;;17.50;;
4762;SDS011;2395;50.738;7.122;2022-09-21T09:00:16;19.70;;;16.50;;
4762;SDS011;2395;50.738;7.122;2022-09-21T09:02:49;20.13;;;17.77;;
4762;SDS011;2395;50.738;7.122;2022-09-21T09:05:44;22.13;;;17.30;;
4762;SDS011;2395;50.738;7.122;2022-09-21T09:08:20;21.40;;;16.70;;
4762;SDS011;2395;50.738;7.122;2022-09-21T09:11:15;26.60;;;16.50;;
4762;SDS011;2395;50.738;7.122;2022-09-21T09:14:09;26.00;;;15.63;;
4762;SDS011;2395;50.738;7.122;2022-09-21T09:17:03;19.47;;;14.77;;
4762;SDS011;2395;50.738;7.122;2022-09-21T09:19:53;21.23;;;13.77;;
4762;SDS011;2395;50.738;7.122;2022-09-21T09:22:28;20.37;;;13.60;;
4762;SDS011;2395;50.738;7.122;2022-09-21T09:25:02;18.00;;;13.00;;
4762;SDS011;2395;50.738;7.122;2022-09-21T09:27:41;19.00;;;12.30;;
4762;SDS011;2395;50.738;7.122;2022-09-21T09:30:14;15.50;;;11.50;;
4762;SDS011;2395;50.738;7.122;2022-09-21T09:32:46;14.90;;;10.90;;
4762;SDS011;2395;50.738;7.122;2022-09-21T09:35:24;16.93;;;10.37;;
4762;SDS011;2395;50.738;7.122;2022-09-21T09:37:55;13.30;;;9.67;;
4762;SDS011;2395;50.738;7.122;2022-09-21T09:40:35;13.80;;;9.27;;
4762;SDS011;2395;50.738;7.122;2022-09-21T09:43:26;14.20;;;10.03;;
4762;SDS011;2395;50.738;7.122;2022-09-21T09:46:12;9.70;;;7.23;;
4762;SDS011;2395;50.738;7.122;2022-09-21T09:51:49;15.00;;;10.10;;
4762;SDS011;2395;50.738;7.122;2022-09-21T09:54:17;13.70;;;7.93;;
4762;SDS011;2395;50.738;7.122;2022-09-21T09:56:49;11.77;;;6.80;;
4762;SDS011;2395;50.738;7.122;2022-09-21T09:59:21;10.40;;;6.60;;
4762;SDS011;2395;50.738;7.122;2022-09-21T10:01:58;11.10;;;6.80;;
4762;SDS011;2395;50.738;7.122;2022-09-21T10:04:27;12.30;;;6.37;;
4762;SDS011;2395;50.738;7.122;2022-09-21T10:06:55;12.30;;;5.87;;
4762;SDS011;2395;50.738;7.122;2022-09-21T10:09:23;14.23;;;6.80;;
4762;SDS011;2395;50.738;7.122;2022-09-21T10:11:52;10.73;;;4.73;;
4762;SDS011;2395;50.738;7.122;2022-09-21T10:14:26;8.80;;;4.50;;
4762;SDS011;2395;50.738;7.122;2022-09-21T10:17:00;7.43;;;3.87;;
4762;SDS011;2395;50.738;7.122;2022-09-21T10:19:33;6.87;;;3.43;;
4762;SDS011;2395;50.738;7.122;2022-09-21T10:22:02;8.93;;;3.80;;
4762;SDS011;2395;50.738;7.122;2022-09-21T10:24:31;7.40;;;3.07;;
4762;SDS011;2395;50.738;7.122;2022-09-21T10:27:05;5.50;;;3.70;;
4762;SDS011;2395;50.738;7.122;2022-09-21T10:29:40;7.37;;;3.33;;
4762;SDS011;2395;50.738;7.122;2022-09-21T10:32:20;6.37;;;4.27;;
4762;SDS011;2395;50.738;7.122;2022-09-21T10:35:01;5.03;;;3.17;;
4762;SDS011;2395;50.738;7.122;2022-09-21T10:37:42;11.00;;;4.20;;
4762;SDS011;2395;50.738;7.122;2022-09-21T10:40:22;6.20;;;2.40;;
4762;SDS011;2395;50.738;7.122;2022-09-21T10:42:54;4.83;;;2.20;;
4762;SDS011;2395;50.738;7.122;2022-09-21T10:45:26;6.87;;;2.50;;
4762;SDS011;2395;50.738;7.122;2022-09-21T10:47:55;5.00;;;2.20;;
4762;SDS011;2395;50.738;7.122;2022-09-21T10:50:34;7.10;;;2.03;;
4762;SDS011;2395;50.738;7.122;2022-09-21T10:53:09;5.70;;;2.67;;
4762;SDS011;2395;50.738;7.122;2022-09-21T10:55:52;6.47;;;3.50;;
4762;SDS011;2395;50.738;7.122;2022-09-21T10:58:24;9.97;;;2.90;;
4762;SDS011;2395;50.738;7.122;2022-09-21T11:00:53;6.13;;;2.23;;
4762;SDS011;2395;50.738;7.122;2022-09-21T11:03:36;22.30;;;3.27;;
4762;SDS011;2395;50.738;7.122;2022-09-21T11:06:17;4.30;;;2.10;;
4762;SDS011;2395;50.738;7.122;2022-09-21T11:08:51;6.90;;;3.07;;
4762;SDS011;2395;50.738;7.122;2022-09-21T11:11:28;10.33;;;3.43;;
4762;SDS011;2395;50.738;7.122;2022-09-21T11:14:09;6.33;;;2.60;;
4762;SDS011;2395;50.738;7.122;2022-09-21T11:16:54;9.50;;;2.53;;
4762;SDS011;2395;50.738;7.122;2022-09-21T11:19:28;7.33;;;3.47;;
4762;SDS011;2395;50.738;7.122;2022-09-21T11:22:05;3.93;;;2.30;;
4762;SDS011;2395;50.738;7.122;2022-09-21T11:24:43;5.80;;;2.10;;
4762;SDS011;2395;50.738;7.122;2022-09-21T11:27:18;5.27;;;1.70;;
4762;SDS011;2395;50.738;7.122;2022-09-21T11:29:54;6.00;;;2.17;;
4762;SDS011;2395;50.738;7.122;2022-09-21T11:32:40;4.47;;;1.87;;
4762;SDS011;2395;50.738;7.122;2022-09-21T11:35:33;5.87;;;1.40;;
4762;SDS011;2395;50.738;7.122;2022-09-21T11:38:16;4.30;;;1.80;;
4762;SDS011;2395;50.738;7.122;2022-09-21T11:41:02;5.17;;;2.07;;
4762;SDS011;2395;50.738;7.122;2022-09-21T11:43:56;4.30;;;1.87;;
4762;SDS011;2395;50.738;7.122;2022-09-21T11:46:45;3.37;;;1.47;;
4762;SDS011;2395;50.738;7.122;2022-09-21T11:49:27;5.80;;;1.80;;
4762;SDS011;2395;50.738;7.122;2022-09-21T11:52:16;6.20;;;1.80;;
4762;SDS011;2395;50.738;7.122;2022-09-21T11:55:15;6.10;;;1.90;;
4762;SDS011;2395;50.738;7.122;2022-09-21T11:58:02;3.53;;;1.27;;
4762;SDS011;2395;50.738;7.122;2022-09-21T12:00:42;3.30;;;1.43;;
4762;SDS011;2395;50.738;7.122;2022-09-21T12:03:28;4.97;;;1.73;;
4762;SDS011;2395;50.738;7.122;2022-09-21T12:06:15;3.17;;;1.43;;
4762;SDS011;2395;50.738;7.122;2022-09-21T12:09:04;7.60;;;1.90;;
4762;SDS011;2395;50.738;7.122;2022-09-21T12:11:53;3.27;;;1.30;;
4762;SDS011;2395;50.738;7.122;2022-09-21T12:14:32;5.10;;;1.93;;
4762;SDS011;2395;50.738;7.122;2022-09-21T12:17:09;6.90;;;1.30;;
4762;SDS011;2395;50.738;7.122;2022-09-21T12:19:48;5.20;;;2.33;;
4762;SDS011;2395;50.738;7.122;2022-09-21T12:22:28;4.80;;;1.10;;
4762;SDS011;2395;50.738;7.122;2022-09-21T12:25:01;5.93;;;1.50;;
4762;SDS011;2395;50.738;7.122;2022-09-21T12:27:38;5.13;;;1.47;;
4762;SDS011;2395;50.738;7.122;2022-09-21T12:30:11;2.27;;;1.10;;
4762;SDS011;2395;50.738;7.122;2022-09-21T12:32:43;2.20;;;1.00;;
4762;SDS011;2395;50.738;7.122;2022-09-21T12:35:23;2.60;;;1.13;;
4762;SDS011;2395;50.738;7.122;2022-09-21T12:38:00;3.70;;;1.33;;
4762;SDS011;2395;50.738;7.122;2022-09-21T12:40:37;2.50;;;1.40;;
4762;SDS011;2395;50.738;7.122;2022-09-21T12:43:14;3.37;;;1.30;;
4762;SDS011;2395;50.738;7.122;2022-09-21T12:45:55;3.70;;;1.47;;
4762;SDS011;2395;50.738;7.122;2022-09-21T12:48:28;2.80;;;1.33;;
4762;SDS011;2395;50.738;7.122;2022-09-21T12:51:00;3.80;;;1.10;;
4762;SDS011;2395;50.738;7.122;2022-09-21T12:53:39;2.47;;;1.20;;
4762;SDS011;2395;50.738;7.122;2022-09-21T12:56:13;3.67;;;1.40;;
4762;SDS011;2395;50.738;7.122;2022-09-21T12:58:58;4.07;;;1.30;;
4762;SDS011;2395;50.738;7.122;2022-09-21T13:01:48;2.87;;;1.30;;
4762;SDS011;2395;50.738;7.122;2022-09-21T13:04:30;4.80;;;1.20;;
4762;SDS011;2395;50.738;7.122;2022-09-21T13:10:44;5.93;;;1.70;;
4762;SDS011;2395;50.738;7.122;2022-09-21T13:13:22;3.30;;;1.10;;
4762;SDS011;2395;50.738;7.122;2022-09-21T13:15:57;4.93;;;1.30;;
4762;SDS011;2395;50.738;7.122;2022-09-21T13:18:27;5.43;;;1.60;;
4762;SDS011;2395;50.738;7.122;2022-09-21T13:20:59;3.80;;;1.30;;
4762;SDS011;2395;50.738;7.122;2022-09-21T13:23:39;3.30;;;1.23;;
4762;SDS011;2395;50.738;7.122;2022-09-21T13:26:09;2.60;;;1.20;;
4762;SDS011;2395;50.738;7.122;2022-09-21T13:31:57;5.93;;;1.20;;
4762;SDS011;2395;50.738;7.122;2022-09-21T13:34:29;2.03;;;1.00;;
4762;SDS011;2395;50.738;7.122;2022-09-21T13:49:25;2.30;;;1.20;;
4762;SDS011;2395;50.738;7.122;2022-09-21T13:52:04;2.60;;;1.10;;
4762;SDS011;2395;50.738;7.122;2022-09-21T13:54:50;2.77;;;1.03;;
4762;SDS011;2395;50.738;7.122;2022-09-21T13:57:24;1.30;;;0.73;;
4762;SDS011;2395;50.738;7.122;2022-09-21T14:00:06;2.83;;;1.00;;
4762;SDS011;2395;50.738;7.122;2022-09-21T14:03:01;4.80;;;1.10;;
4762;SDS011;2395;50.738;7.122;2022-09-21T14:05:43;2.43;;;0.80;;
4762;SDS011;2395;50.738;7.122;2022-09-21T14:08:18;4.83;;;1.27;;
4762;SDS011;2395;50.738;7.122;2022-09-21T14:10:52;2.90;;;1.00;;
4762;SDS011;2395;50.738;7.122;2022-09-21T14:13:25;3.53;;;1.70;;
4762;SDS011;2395;50.738;7.122;2022-09-21T14:22:49;2.57;;;1.00;;
4762;SDS011;2395;50.738;7.122;2022-09-21T14:25:51;2.33;;;0.80;;
4762;SDS011;2395;50.738;7.122;2022-09-21T14:28:26;2.40;;;1.03;;
4762;SDS011;2395;50.738;7.122;2022-09-21T14:31:02;4.30;;;1.10;;
4762;SDS011;2395;50.738;7.122;2022-09-21T14:33:42;3.43;;;1.00;;
4762;SDS011;2395;50.738;7.122;2022-09-21T14:36:16;4.70;;;1.00;;
4762;SDS011;2395;50.738;7.122;2022-09-21T14:38:51;1.97;;;1.10;;
4762;SDS011;2395;50.738;7.122;2022-09-21T14:41:24;2.13;;;0.90;;
4762;SDS011;2395;50.738;7.122;2022-09-21T14:43:58;2.27;;;0.90;;
4762;SDS011;2395;50.738;7.122;2022-09-21T14:46:30;1.60;;;0.80;;
4762;SDS011;2395;50.738;7.122;2022-09-21T14:49:35;1.93;;;0.70;;
4762;SDS011;2395;50.738;7.122;2022-09-21T14:52:28;3.20;;;0.80;;
4762;SDS011;2395;50.738;7.122;2022-09-21T14:55:10;2.10;;;0.90;;
4762;SDS011;2395;50.738;7.122;2022-09-21T14:57:49;1.77;;;0.70;;
4762;SDS011;2395;50.738;7.122;2022-09-21T15:00:37;2.43;;;0.73;;
4762;SDS011;2395;50.738;7.122;2022-09-21T15:03:16;1.97;;;0.80;;
4762;SDS011;2395;50.738;7.122;2022-09-21T15:06:10;1.77;;;0.80;;
4762;SDS011;2395;50.738;7.122;2022-09-21T15:09:12;2.43;;;0.80;;
4762;SDS011;2395;50.738;7.122;2022-09-21T15:12:20;1.73;;;0.70;;
4762;SDS011;2395;50.738;7.122;2022-09-21T15:14:59;2.20;;;1.07;;
4762;SDS011;2395;50.738;7.122;2022-09-21T15:17:49;1.57;;;0.70;;
4762;SDS011;2395;50.738;7.122;2022-09-21T15:20:20;3.53;;;0.93;;
4762;SDS011;2395;50.738;7.122;2022-09-21T15:22:48;2.17;;;0.80;;
4762;SDS011;2395;50.738;7.122;2022-09-21T15:25:22;1.73;;;0.80;;
4762;SDS011;2395;50.738;7.122;2022-09-21T15:27:52;1.90;;;0.70;;
4762;SDS011;2395;50.738;7.122;2022-09-21T15:30:21;2.53;;;0.80;;
4762;SDS011;2395;50.738;7.122;2022-09-21T15:32:53;1.20;;;0.80;;
4762;SDS011;2395;50.738;7.122;2022-09-21T15:35:23;3.50;;;0.70;;
4762;SDS011;2395;50.738;7.122;2022-09-21T15:37:52;1.73;;;1.00;;
4762;SDS011;2395;50.738;7.122;2022-09-21T15:40:23;3.38;;;0.80;;
4762;SDS011;2395;50.738;7.122;2022-09-21T15:42:58;2.03;;;0.80;;
4762;SDS011;2395;50.738;7.122;2022-09-21T15:45:28;2.50;;;0.90;;
4762;SDS011;2395;50.738;7.122;2022-09-21T15:48:01;4.00;;;0.80;;
4762;SDS011;2395;50.738;7.122;2022-09-21T15:50:31;2.33;;;1.20;;
4762;SDS011;2395;50.738;7.122;2022-09-21T15:53:00;3.40;;;0.83;;
4762;SDS011;2395;50.738;7.122;2022-09-21T15:55:35;4.33;;;0.80;;
4762;SDS011;2395;50.738;7.122;2022-09-21T15:58:02;2.13;;;0.73;;
4762;SDS011;2395;50.738;7.122;2022-09-21T16:00:49;1.90;;;0.80;;
4762;SDS011;2395;50.738;7.122;2022-09-21T16:03:20;3.80;;;1.40;;
4762;SDS011;2395;50.738;7.122;2022-09-21T16:05:50;3.33;;;1.10;;
4762;SDS011;2395;50.738;7.122;2022-09-21T16:08:27;3.87;;;0.90;;
4762;SDS011;2395;50.738;7.122;2022-09-21T16:11:18;2.20;;;1.00;;
4762;SDS011;2395;50.738;7.122;2022-09-21T16:14:02;4.23;;;0.97;;